createdAt,value
2019-02-07T00:00:56.794Z,18.27
2019-02-07T00:03:26.287Z,18.43
2019-02-07T00:05:56.960Z,21.67
2019-02-07T00:08:26.050Z,19.90
2019-02-07T00:10:55.439Z,21.07
2019-02-07T00:13:24.853Z,19.10
2019-02-07T00:15:54.512Z,23.37
2019-02-07T00:18:24.011Z,19.83
2019-02-07T00:20:53.746Z,21.73
2019-02-07T00:23:23.545Z,22.67
2019-02-07T00:25:52.752Z,21.13
2019-02-07T00:28:22.006Z,20.50
2019-02-07T00:30:51.152Z,19.80
2019-02-07T00:33:21.062Z,23.67
2019-02-07T00:35:50.517Z,21.77
2019-02-07T00:38:21.037Z,18.40
2019-02-07T00:40:50.359Z,19.90
2019-02-07T00:43:19.924Z,18.77
2019-02-07T00:45:50.691Z,20.93
2019-02-07T00:48:20.156Z,21.57
2019-02-07T00:50:50.035Z,20.07
2019-02-07T00:53:19.345Z,21.10
2019-02-07T00:55:48.414Z,20.37
2019-02-07T00:58:17.756Z,20.43
2019-02-07T01:00:48.974Z,19.27
2019-02-07T01:03:18.635Z,18.43
2019-02-07T01:05:50.651Z,18.47
2019-02-07T01:08:19.988Z,20.60
2019-02-07T01:10:49.777Z,19.20
2019-02-07T01:13:19.041Z,20.87
2019-02-07T01:15:48.898Z,18.73
2019-02-07T01:18:18.887Z,21.33
2019-02-07T01:20:48.225Z,20.60
2019-02-07T01:23:17.584Z,21.40
2019-02-07T01:25:49.775Z,20.77
2019-02-07T01:28:18.945Z,20.67
2019-02-07T01:30:48.152Z,21.73
2019-02-07T01:33:17.661Z,21.23
2019-02-07T01:35:48.689Z,22.93
2019-02-07T01:38:18.047Z,21.20
2019-02-07T01:40:47.435Z,21.43
2019-02-07T01:43:17.082Z,23.73
2019-02-07T01:45:46.391Z,23.03
2019-02-07T01:48:16.135Z,23.00
2019-02-07T01:50:45.643Z,22.27
2019-02-07T01:53:15.025Z,25.00
2019-02-07T01:55:44.518Z,24.03
2019-02-07T01:58:13.701Z,23.27
2019-02-07T02:00:43.127Z,21.47
2019-02-07T02:03:12.847Z,21.40
2019-02-07T02:05:42.014Z,24.03
2019-02-07T02:08:11.719Z,25.07
2019-02-07T02:10:41.119Z,25.33
2019-02-07T02:13:10.791Z,23.03
2019-02-07T02:15:39.926Z,24.13
2019-02-07T02:18:09.556Z,19.97
2019-02-07T02:20:39.046Z,24.07
2019-02-07T02:23:08.653Z,23.83
2019-02-07T02:25:40.602Z,24.07
2019-02-07T02:28:10.415Z,33.93
2019-02-07T02:30:41.299Z,23.73
2019-02-07T02:33:10.705Z,21.73
2019-02-07T02:35:40.387Z,22.63
2019-02-07T02:38:09.571Z,22.33
2019-02-07T02:40:38.902Z,21.70
2019-02-07T02:43:08.140Z,25.93
2019-02-07T02:45:38.040Z,22.50
2019-02-07T02:48:07.665Z,21.97
2019-02-07T02:50:37.381Z,22.37
2019-02-07T02:53:07.121Z,26.13
2019-02-07T02:55:41.724Z,22.43
2019-02-07T02:58:11.111Z,20.13
2019-02-07T03:01:02.600Z,22.03
2019-02-07T03:03:49.131Z,24.43
2019-02-07T03:06:33.188Z,22.93
2019-02-07T03:09:24.516Z,26.70
2019-02-07T03:12:15.698Z,21.43
2019-02-07T03:15:03.963Z,19.00
2019-02-07T03:17:52.207Z,24.67
2019-02-07T03:20:47.024Z,21.37
2019-02-07T03:23:50.523Z,20.30
2019-02-07T03:26:44.647Z,21.40
2019-02-07T03:29:31.886Z,20.57
2019-02-07T03:32:08.372Z,30.40
2019-02-07T03:34:53.346Z,21.80
2019-02-07T03:37:53.840Z,27.30
2019-02-07T03:40:40.860Z,30.20
2019-02-07T03:43:41.548Z,23.47
2019-02-07T03:46:28.001Z,25.13
2019-02-07T03:49:14.855Z,19.20
2019-02-07T03:52:05.988Z,32.50
2019-02-07T03:54:47.236Z,20.33
2019-02-07T03:57:33.923Z,22.87
2019-02-07T04:00:21.021Z,21.50
2019-02-07T04:03:04.976Z,20.20
2019-02-07T04:05:51.773Z,21.03
2019-02-07T04:08:39.127Z,21.27
2019-02-07T04:11:33.482Z,22.33
2019-02-07T04:14:31.062Z,19.33
2019-02-07T04:17:13.527Z,20.50
2019-02-07T04:20:01.410Z,19.77
2019-02-07T04:22:49.654Z,20.17
2019-02-07T04:25:53.137Z,19.63
2019-02-07T04:28:47.222Z,21.27
2019-02-07T04:31:35.769Z,20.20
2019-02-07T04:34:26.166Z,20.63
2019-02-07T04:37:06.112Z,20.03
2019-02-07T04:40:12.076Z,20.70
2019-02-07T04:42:54.549Z,20.20
2019-02-07T04:45:52.932Z,21.87
2019-02-07T04:48:41.200Z,21.20
2019-02-07T04:51:38.847Z,21.20
2019-02-07T04:54:20.455Z,21.13
2019-02-07T04:57:07.443Z,20.97
2019-02-07T04:59:58.468Z,20.83
2019-02-07T05:02:45.481Z,20.90
2019-02-07T05:05:36.789Z,20.60
2019-02-07T05:08:31.532Z,19.83
2019-02-07T05:11:18.825Z,20.83
2019-02-07T05:14:12.495Z,19.87
2019-02-07T05:17:10.039Z,19.93
2019-02-07T05:20:07.906Z,19.63
2019-02-07T05:22:56.051Z,20.30
2019-02-07T05:25:43.362Z,21.23
2019-02-07T05:28:40.964Z,19.07
2019-02-07T05:31:23.527Z,19.27
2019-02-07T05:34:10.430Z,20.13
2019-02-07T05:36:54.469Z,21.97
2019-02-07T05:39:41.459Z,21.83
2019-02-07T05:42:41.792Z,22.37
2019-02-07T05:45:18.390Z,21.23
2019-02-07T05:48:12.582Z,20.10
2019-02-07T05:50:59.394Z,18.97
2019-02-07T05:53:50.836Z,22.57
2019-02-07T05:56:42.855Z,22.57
2019-02-07T05:59:29.766Z,24.83
2019-02-07T06:02:18.004Z,22.87
2019-02-07T06:05:09.413Z,24.73
2019-02-07T06:08:00.750Z,23.33
2019-02-07T06:10:55.005Z,21.77
2019-02-07T06:13:49.494Z,21.10
2019-02-07T06:16:46.633Z,22.13
2019-02-07T06:19:24.460Z,21.20
2019-02-07T06:22:19.487Z,20.90
2019-02-07T06:25:15.699Z,22.87
2019-02-07T06:27:54.963Z,19.87
2019-02-07T06:30:41.831Z,20.93
2019-02-07T06:33:42.855Z,18.33
2019-02-07T06:36:30.993Z,20.50
2019-02-07T06:39:31.539Z,17.33
2019-02-07T06:42:24.498Z,20.63
2019-02-07T06:45:11.655Z,20.73
2019-02-07T06:48:17.015Z,21.97
2019-02-07T06:50:55.019Z,22.10
2019-02-07T06:53:42.501Z,22.37
2019-02-07T06:56:29.603Z,20.73
2019-02-07T06:59:16.629Z,19.83
2019-02-07T07:02:02.075Z,22.17
2019-02-07T07:05:05.799Z,21.27
2019-02-07T07:08:06.361Z,20.63
2019-02-07T07:10:53.909Z,22.27
2019-02-07T07:13:45.173Z,24.43
2019-02-07T07:16:33.305Z,21.77
2019-02-07T07:19:20.396Z,23.20
2019-02-07T07:22:26.799Z,21.33
2019-02-07T07:25:17.997Z,22.00
2019-02-07T07:28:21.459Z,20.67
2019-02-07T07:31:16.053Z,20.60
2019-02-07T07:34:03.647Z,21.77
2019-02-07T07:36:58.214Z,21.67
2019-02-07T07:39:38.877Z,20.27
2019-02-07T07:42:39.322Z,22.97
2019-02-07T07:45:39.043Z,22.13
2019-02-07T07:48:26.180Z,21.87
2019-02-07T07:51:23.515Z,20.50
2019-02-07T07:54:10.763Z,21.23
2019-02-07T07:56:47.900Z,23.03
2019-02-07T07:59:48.549Z,22.57
2019-02-07T08:02:34.630Z,20.90
2019-02-07T08:05:41.380Z,19.70
2019-02-07T08:08:32.898Z,21.33
2019-02-07T08:11:24.116Z,20.83
2019-02-07T08:14:15.618Z,20.83
2019-02-07T08:17:09.783Z,23.33
2019-02-07T08:20:07.499Z,20.83
2019-02-07T08:23:04.726Z,21.80
2019-02-07T08:25:48.280Z,23.00
2019-02-07T08:28:42.614Z,21.83
2019-02-07T08:31:24.484Z,24.37
2019-02-07T08:34:31.148Z,21.27
2019-02-07T08:37:14.975Z,21.13
2019-02-07T08:39:59.119Z,22.43
2019-02-07T08:42:57.119Z,20.97
2019-02-07T08:45:39.258Z,21.53
2019-02-07T08:48:23.950Z,24.50
2019-02-07T08:51:25.940Z,24.73
2019-02-07T08:54:20.399Z,21.60
2019-02-07T08:57:11.509Z,23.67
2019-02-07T09:00:12.173Z,23.97
2019-02-07T09:03:00.900Z,25.43
2019-02-07T09:05:48.006Z,19.63
2019-02-07T09:08:51.762Z,22.83
2019-02-07T09:11:38.431Z,22.57
2019-02-07T09:14:21.139Z,22.50
2019-02-07T09:17:01.539Z,23.83
2019-02-07T09:19:50.250Z,22.90
2019-02-07T09:22:37.967Z,26.73
2019-02-07T09:25:34.565Z,25.73
2019-02-07T09:28:22.360Z,25.20
2019-02-07T09:31:10.406Z,23.00
2019-02-07T09:33:51.694Z,24.20
2019-02-07T09:36:34.067Z,24.00
2019-02-07T09:39:28.364Z,25.83
2019-02-07T09:42:25.609Z,25.00
2019-02-07T09:45:12.457Z,25.27
2019-02-07T09:48:06.813Z,24.50
2019-02-07T09:50:53.766Z,26.53
2019-02-07T09:53:45.050Z,25.40
2019-02-07T09:56:35.889Z,25.37
2019-02-07T09:59:27.158Z,26.17
2019-02-07T10:02:30.135Z,25.07
2019-02-07T10:05:20.762Z,25.33
2019-02-07T10:08:18.275Z,21.17
2019-02-07T10:11:06.735Z,23.40
2019-02-07T10:13:55.105Z,24.87
2019-02-07T10:16:43.463Z,20.50
2019-02-07T10:19:33.417Z,23.63
2019-02-07T10:22:09.520Z,26.03
2019-02-07T10:25:05.096Z,22.23
2019-02-07T10:27:59.079Z,21.57
2019-02-07T10:30:53.973Z,23.20
2019-02-07T10:33:39.243Z,25.70
2019-02-07T10:36:26.040Z,24.50
2019-02-07T10:39:29.767Z,24.17
2019-02-07T10:42:36.530Z,14.43
2019-02-07T10:45:31.834Z,25.10
2019-02-07T10:48:18.044Z,26.43
2019-02-07T10:51:14.365Z,23.27
2019-02-07T10:54:00.180Z,24.27
2019-02-07T10:56:51.491Z,24.70
2019-02-07T10:59:36.543Z,21.63
2019-02-07T11:02:31.307Z,26.53
2019-02-07T11:05:25.402Z,28.07
2019-02-07T11:08:22.773Z,26.80
2019-02-07T11:11:08.088Z,26.37
2019-02-07T11:13:58.956Z,24.97
2019-02-07T11:16:41.292Z,25.37
2019-02-07T11:19:29.798Z,24.67
2019-02-07T11:22:14.396Z,23.57
2019-02-07T11:25:03.027Z,23.07
2019-02-07T11:27:57.412Z,22.60
2019-02-07T11:30:48.822Z,21.43
2019-02-07T11:33:40.393Z,20.93
2019-02-07T11:36:53.899Z,19.23
2019-02-07T11:39:36.053Z,18.87
2019-02-07T11:42:36.623Z,18.90
2019-02-07T11:45:25.881Z,18.50
2019-02-07T11:48:16.782Z,17.53
2019-02-07T11:51:14.361Z,17.70
2019-02-07T11:54:02.988Z,16.67
2019-02-07T11:56:50.380Z,16.93
2019-02-07T11:59:33.349Z,17.23
2019-02-07T12:02:20.940Z,18.13
2019-02-07T12:05:05.159Z,15.73
2019-02-07T12:07:46.906Z,16.47
2019-02-07T12:10:30.752Z,18.00
2019-02-07T12:13:25.073Z,16.80
2019-02-07T12:16:31.485Z,16.23
2019-02-07T12:19:17.670Z,16.83
2019-02-07T12:22:07.408Z,16.80
2019-02-07T12:24:54.491Z,16.63
2019-02-07T12:27:35.331Z,16.80
2019-02-07T12:30:24.528Z,17.83
2019-02-07T12:33:07.241Z,17.00
2019-02-07T12:35:42.727Z,18.50
2019-02-07T12:38:31.141Z,20.57
2019-02-07T12:41:22.350Z,19.90
2019-02-07T12:44:09.596Z,19.87
2019-02-07T12:47:09.787Z,18.53
2019-02-07T12:49:56.779Z,19.33
2019-02-07T12:52:44.097Z,18.83
2019-02-07T12:55:27.962Z,17.53
2019-02-07T12:58:15.068Z,19.03
2019-02-07T13:01:12.545Z,18.13
2019-02-07T13:03:59.609Z,16.73
2019-02-07T13:06:46.485Z,18.47
2019-02-07T13:09:34.087Z,18.97
2019-02-07T13:12:13.837Z,18.10
2019-02-07T13:15:00.945Z,16.67
2019-02-07T13:17:46.208Z,19.47
2019-02-07T13:20:46.979Z,19.13
2019-02-07T13:23:47.197Z,19.37
2019-02-07T13:26:38.211Z,20.00
2019-02-07T13:29:25.616Z,18.63
2019-02-07T13:32:12.896Z,22.50
2019-02-07T13:35:14.025Z,21.70
2019-02-07T13:38:02.030Z,19.67
2019-02-07T13:40:48.999Z,20.07
2019-02-07T13:43:37.187Z,18.53
2019-02-07T13:46:37.461Z,19.23
2019-02-07T13:49:24.906Z,18.77
2019-02-07T13:52:09.035Z,18.67
2019-02-07T13:54:55.688Z,18.70
2019-02-07T13:57:39.108Z,19.90
2019-02-07T14:00:44.548Z,20.53
2019-02-07T14:03:28.612Z,19.90
2019-02-07T14:06:22.560Z,20.77
2019-02-07T14:09:06.584Z,19.93
2019-02-07T14:12:12.989Z,20.47
2019-02-07T14:15:08.073Z,20.00
2019-02-07T14:17:55.186Z,19.93
2019-02-07T14:20:43.395Z,20.43
2019-02-07T14:23:21.726Z,19.50
2019-02-07T14:26:25.224Z,20.27
2019-02-07T14:29:31.390Z,20.07
2019-02-07T14:32:31.889Z,20.37
2019-02-07T14:35:32.362Z,21.73
2019-02-07T14:38:26.422Z,21.07
2019-02-07T14:41:17.556Z,21.50
2019-02-07T14:43:59.355Z,21.97
2019-02-07T14:46:42.672Z,20.13
2019-02-07T14:49:11.980Z,21.03
2019-02-07T14:51:42.810Z,21.07
2019-02-07T14:54:12.280Z,19.63
2019-02-07T14:56:41.500Z,20.33
2019-02-07T14:59:10.605Z,24.43
2019-02-07T15:01:39.999Z,23.13
2019-02-07T15:04:09.183Z,24.80
2019-02-07T15:06:38.388Z,24.77
2019-02-07T15:09:17.704Z,22.13
2019-02-07T15:11:46.811Z,26.40
2019-02-07T15:14:15.920Z,24.97
2019-02-07T15:16:45.410Z,24.93
2019-02-07T15:19:15.039Z,23.53
2019-02-07T15:21:44.351Z,23.73
2019-02-07T15:24:13.629Z,23.73
2019-02-07T15:26:43.036Z,23.47
2019-02-07T15:29:12.642Z,23.87
2019-02-07T15:31:42.115Z,20.83
2019-02-07T15:34:11.518Z,21.80
2019-02-07T15:36:41.668Z,21.70
2019-02-07T15:39:12.825Z,21.17
2019-02-07T15:41:42.683Z,21.80
2019-02-07T15:44:11.899Z,22.10
2019-02-07T15:46:44.161Z,21.67
2019-02-07T15:49:13.528Z,21.33
2019-02-07T15:51:42.879Z,20.90
2019-02-07T15:54:13.273Z,20.47
2019-02-07T15:56:44.862Z,21.50
2019-02-07T15:59:42.320Z,20.73
2019-02-07T16:02:19.513Z,20.37
2019-02-07T16:04:48.808Z,21.37
2019-02-07T16:07:18.251Z,21.40
2019-02-07T16:09:47.739Z,20.47
2019-02-07T16:12:17.316Z,19.37
2019-02-07T16:14:46.647Z,22.13
2019-02-07T16:17:16.015Z,21.43
2019-02-07T16:19:45.144Z,21.33
2019-02-07T16:22:15.525Z,20.70
2019-02-07T16:24:44.849Z,20.43
2019-02-07T16:27:14.215Z,20.40
2019-02-07T16:29:43.700Z,21.23
2019-02-07T16:32:13.520Z,21.23
2019-02-07T16:34:42.648Z,20.63
2019-02-07T16:37:11.867Z,20.57
2019-02-07T16:39:41.142Z,19.10
2019-02-07T16:42:10.418Z,20.03
2019-02-07T16:44:40.023Z,20.80
2019-02-07T16:47:09.289Z,26.00
2019-02-07T16:49:38.503Z,21.70
2019-02-07T16:52:07.694Z,22.33
2019-02-07T16:54:36.906Z,21.47
2019-02-07T16:57:06.009Z,22.23
2019-02-07T16:59:35.120Z,20.97
2019-02-07T17:02:05.156Z,22.33
2019-02-07T17:04:34.433Z,19.90
2019-02-07T17:07:03.361Z,22.00
2019-02-07T17:09:40.661Z,22.33
2019-02-07T17:12:10.079Z,20.63
2019-02-07T17:14:39.368Z,20.90
2019-02-07T17:17:08.747Z,20.37
2019-02-07T17:19:38.097Z,20.60
2019-02-07T17:22:07.516Z,20.23
2019-02-07T17:24:36.905Z,20.27
2019-02-07T17:27:06.381Z,19.97
2019-02-07T17:29:35.692Z,19.97
2019-02-07T17:32:05.650Z,20.40
2019-02-07T17:34:35.419Z,19.87
2019-02-07T17:37:04.916Z,19.77
2019-02-07T17:39:34.361Z,21.23
2019-02-07T17:42:03.748Z,21.10
2019-02-07T17:44:33.255Z,20.43
2019-02-07T17:47:02.555Z,20.93
2019-02-07T17:49:32.116Z,20.53
2019-02-07T17:52:01.818Z,20.83
2019-02-07T17:54:31.261Z,20.50
2019-02-07T17:57:01.361Z,22.37
2019-02-07T17:59:31.319Z,20.20
2019-02-07T18:02:06.116Z,20.43
2019-02-07T18:04:35.428Z,20.70
2019-02-07T18:07:05.395Z,21.23
2019-02-07T18:09:34.942Z,21.10
2019-02-07T18:12:04.601Z,22.37
2019-02-07T18:14:33.738Z,20.80
2019-02-07T18:17:03.229Z,21.50
2019-02-07T18:19:32.711Z,21.83
2019-02-07T18:22:01.936Z,21.33
2019-02-07T18:24:31.501Z,21.93
2019-02-07T18:27:00.990Z,21.77
2019-02-07T18:29:30.612Z,21.67
2019-02-07T18:32:00.369Z,21.07
2019-02-07T18:34:29.770Z,26.63
2019-02-07T18:37:00.450Z,35.80
2019-02-07T18:39:30.836Z,33.13
2019-02-07T18:42:00.336Z,24.50
2019-02-07T18:44:29.776Z,23.20
2019-02-07T18:46:59.332Z,25.17
2019-02-07T18:49:29.137Z,20.87
2019-02-07T18:51:58.918Z,22.30
2019-02-07T18:54:29.295Z,19.77
2019-02-07T18:56:58.798Z,20.90
2019-02-07T18:59:30.964Z,25.30
2019-02-07T19:02:00.131Z,20.03
2019-02-07T19:04:29.645Z,19.10
2019-02-07T19:06:59.148Z,19.57
2019-02-07T19:09:28.225Z,20.20
2019-02-07T19:11:57.541Z,18.20
2019-02-07T19:14:26.979Z,17.97
2019-02-07T19:16:56.247Z,19.77
2019-02-07T19:19:25.448Z,21.60
2019-02-07T19:21:57.122Z,15.67
2019-02-07T19:24:25.675Z,15.43
2019-02-07T19:26:54.873Z,15.13
2019-02-07T19:29:24.066Z,16.27
2019-02-07T19:31:53.511Z,15.43
2019-02-07T19:34:22.752Z,15.73
2019-02-07T19:36:51.891Z,14.10
2019-02-07T19:39:21.042Z,13.87
2019-02-07T19:41:50.749Z,14.57
2019-02-07T19:44:19.778Z,16.13
2019-02-07T19:46:48.970Z,13.10
2019-02-07T19:49:18.165Z,14.03
2019-02-07T19:51:47.321Z,12.60
2019-02-07T19:54:16.874Z,13.90
2019-02-07T19:56:46.410Z,11.43
2019-02-07T19:59:15.778Z,16.23
2019-02-07T20:01:45.154Z,10.70
2019-02-07T20:04:14.355Z,11.03
2019-02-07T20:06:43.748Z,20.43
2019-02-07T20:09:13.377Z,20.90
2019-02-07T20:11:42.927Z,15.10
2019-02-07T20:14:12.282Z,19.53
2019-02-07T20:16:41.469Z,23.43
2019-02-07T20:19:10.566Z,14.50
2019-02-07T20:21:39.651Z,10.90
2019-02-07T20:24:08.865Z,12.70
2019-02-07T20:26:38.363Z,12.53
2019-02-07T20:29:07.763Z,12.40
2019-02-07T20:31:37.304Z,12.07
2019-02-07T20:34:06.459Z,11.87
2019-02-07T20:36:35.551Z,11.43
2019-02-07T20:39:07.247Z,12.37
2019-02-07T20:41:36.440Z,12.60
2019-02-07T20:44:05.719Z,12.50
2019-02-07T20:46:35.085Z,12.70
2019-02-07T20:49:04.319Z,14.57
2019-02-07T20:51:33.834Z,15.27
2019-02-07T20:54:03.233Z,15.23
2019-02-07T20:56:32.509Z,16.60
2019-02-07T20:59:01.768Z,18.47
2019-02-07T21:01:31.092Z,21.70
2019-02-07T21:04:00.180Z,26.13
2019-02-07T21:06:29.347Z,21.17
2019-02-07T21:08:58.791Z,20.13
2019-02-07T21:11:28.121Z,17.40
2019-02-07T21:13:57.435Z,16.00
2019-02-07T21:16:26.588Z,16.37
2019-02-07T21:18:56.105Z,15.77
2019-02-07T21:21:25.084Z,16.20
2019-02-07T21:23:54.259Z,16.10
2019-02-07T21:26:23.531Z,15.47
2019-02-07T21:28:52.962Z,16.40
2019-02-07T21:31:22.170Z,15.13
2019-02-07T21:33:51.543Z,14.43
2019-02-07T21:36:20.871Z,14.30
2019-02-07T21:38:49.864Z,14.37
2019-02-07T21:41:19.082Z,14.20
2019-02-07T21:43:48.432Z,13.87
2019-02-07T21:46:17.653Z,12.70
2019-02-07T21:48:47.097Z,13.47
2019-02-07T21:51:16.234Z,13.43
2019-02-07T21:53:45.304Z,12.97
2019-02-07T21:56:14.346Z,14.53
2019-02-07T21:58:43.957Z,14.40
2019-02-07T22:01:13.612Z,13.70
2019-02-07T22:03:42.847Z,14.00
2019-02-07T22:06:12.353Z,14.03
2019-02-07T22:08:42.249Z,12.50
2019-02-07T22:11:13.425Z,12.33
2019-02-07T22:13:42.910Z,11.97
2019-02-07T22:16:11.935Z,12.27
2019-02-07T22:18:41.448Z,11.97
2019-02-07T22:21:10.841Z,12.13
2019-02-07T22:23:40.318Z,11.37
2019-02-07T22:26:09.422Z,11.63
2019-02-07T22:28:39.132Z,10.73
2019-02-07T22:31:08.548Z,10.87
2019-02-07T22:33:37.802Z,10.30
2019-02-07T22:36:06.836Z,10.70
2019-02-07T22:38:35.926Z,10.43
2019-02-07T22:41:05.051Z,10.63
2019-02-07T22:43:34.729Z,10.50
2019-02-07T22:46:04.409Z,10.97
2019-02-07T22:48:33.769Z,10.57
2019-02-07T22:51:03.330Z,10.80
2019-02-07T22:53:32.747Z,10.53
2019-02-07T22:56:02.158Z,10.67
2019-02-07T22:58:32.302Z,9.80
2019-02-07T23:01:20.691Z,10.57
2019-02-07T23:03:51.847Z,10.07
2019-02-07T23:06:21.331Z,9.97
2019-02-07T23:08:50.887Z,9.67
2019-02-07T23:11:20.888Z,10.27
2019-02-07T23:13:50.233Z,9.90
2019-02-07T23:16:19.629Z,10.27
2019-02-07T23:18:49.235Z,9.53
2019-02-07T23:21:19.969Z,9.53
2019-02-07T23:23:49.022Z,10.67
2019-02-07T23:26:18.673Z,9.80
2019-02-07T23:28:48.427Z,9.53
2019-02-07T23:31:18.101Z,9.67
2019-02-07T23:33:48.231Z,9.70
2019-02-07T23:36:17.826Z,9.13
2019-02-07T23:38:47.195Z,9.13
2019-02-07T23:41:16.687Z,9.63
2019-02-07T23:43:46.405Z,8.73
2019-02-07T23:46:15.578Z,9.53
2019-02-07T23:48:45.454Z,9.07
2019-02-07T23:51:14.750Z,8.47
2019-02-07T23:53:43.862Z,8.23
2019-02-07T23:56:13.350Z,8.50
2019-02-07T23:58:42.686Z,8.77
